Arcola, Texas
Current Conditions -  °F | °C
As of 6:35 PM on Thursday 27 Nov 2014 (Local Time) from KAXH Reporting Station
Clear Clear  
Wind Chill: 51°   Ceiling: Unl
Heat Index: 51°   Visibility: 10mi
Dew Point: 40°   Wind: 5mph
Humidity: 66%   Direction: 170°S
Pressure: 30.42"   Gusts: NA
Location:  29.4042°N, 95.4477°W
Report Text: KAXH 280035Z AUTO 17004KT 10SM CLR 11/05 A3042 RMK AO2 T01070045
Loading
Personal Weather Stations






























Interactive Weather Map New forecast layout! Learn more

10-Day Weather Forecast

Advertisements
Track Severe Weather on mobile